sensor_id;sensor_type;location;lat;lon;timestamp;temperature;humidity
11005;DHT22;5555;59.622;16.556;2022-12-13T00:01:28;-4.40;99.90
11005;DHT22;5555;59.622;16.556;2022-12-13T00:03:55;-4.40;99.90
11005;DHT22;5555;59.622;16.556;2022-12-13T00:06:21;-4.40;99.90
11005;DHT22;5555;59.622;16.556;2022-12-13T00:08:47;-4.40;99.90
11005;DHT22;5555;59.622;16.556;2022-12-13T00:11:13;-4.40;99.90
11005;DHT22;5555;59.622;16.556;2022-12-13T00:13:41;-4.40;99.90
11005;DHT22;5555;59.622;16.556;2022-12-13T00:16:10;-4.40;99.90
11005;DHT22;5555;59.622;16.556;2022-12-13T00:18:36;-4.40;99.90
11005;DHT22;5555;59.622;16.556;2022-12-13T00:21:06;-4.40;99.90
11005;DHT22;5555;59.622;16.556;2022-12-13T00:23:33;-4.40;99.90
11005;DHT22;5555;59.622;16.556;2022-12-13T00:26:04;-4.50;99.90
11005;DHT22;5555;59.622;16.556;2022-12-13T00:28:29;-4.50;99.90
11005;DHT22;5555;59.622;16.556;2022-12-13T00:30:59;-4.50;99.90
11005;DHT22;5555;59.622;16.556;2022-12-13T00:33:26;-4.50;99.90
11005;DHT22;5555;59.622;16.556;2022-12-13T00:35:52;-4.50;99.90
11005;DHT22;5555;59.622;16.556;2022-12-13T00:38:18;-4.50;99.90
11005;DHT22;5555;59.622;16.556;2022-12-13T00:40:43;-4.50;99.90
11005;DHT22;5555;59.622;16.556;2022-12-13T00:43:09;-4.50;99.90
11005;DHT22;5555;59.622;16.556;2022-12-13T00:45:34;-4.50;99.90
11005;DHT22;5555;59.622;16.556;2022-12-13T00:48:00;-4.60;99.90
11005;DHT22;5555;59.622;16.556;2022-12-13T00:50:26;-4.60;99.90
11005;DHT22;5555;59.622;16.556;2022-12-13T00:52:51;-4.70;99.90
11005;DHT22;5555;59.622;16.556;2022-12-13T00:55:17;-4.70;99.90
11005;DHT22;5555;59.622;16.556;2022-12-13T00:57:43;-4.70;99.90
11005;DHT22;5555;59.622;16.556;2022-12-13T01:00:09;-4.80;99.90
11005;DHT22;5555;59.622;16.556;2022-12-13T01:02:35;-4.80;99.90
11005;DHT22;5555;59.622;16.556;2022-12-13T01:05:00;-4.80;99.90
11005;DHT22;5555;59.622;16.556;2022-12-13T01:07:26;-4.80;99.90
11005;DHT22;5555;59.622;16.556;2022-12-13T01:09:52;-4.90;99.90
11005;DHT22;5555;59.622;16.556;2022-12-13T01:12:17;-4.90;99.90
11005;DHT22;5555;59.622;16.556;2022-12-13T01:14:43;-5.00;99.90
11005;DHT22;5555;59.622;16.556;2022-12-13T01:17:09;-5.00;99.90
11005;DHT22;5555;59.622;16.556;2022-12-13T01:19:34;-5.10;99.90
11005;DHT22;5555;59.622;16.556;2022-12-13T01:22:05;-5.10;99.90
11005;DHT22;5555;59.622;16.556;2022-12-13T01:24:32;-5.10;99.90
11005;DHT22;5555;59.622;16.556;2022-12-13T01:26:58;-5.10;99.90
11005;DHT22;5555;59.622;16.556;2022-12-13T01:29:25;-5.20;99.90
11005;DHT22;5555;59.622;16.556;2022-12-13T01:31:50;-5.20;99.90
11005;DHT22;5555;59.622;16.556;2022-12-13T01:34:18;-5.20;99.90
11005;DHT22;5555;59.622;16.556;2022-12-13T01:36:45;-5.20;99.90
11005;DHT22;5555;59.622;16.556;2022-12-13T01:39:13;-5.20;99.90
11005;DHT22;5555;59.622;16.556;2022-12-13T01:41:39;-5.20;99.90
11005;DHT22;5555;59.622;16.556;2022-12-13T01:46:51;-5.30;99.90
11005;DHT22;5555;59.622;16.556;2022-12-13T01:49:18;-5.30;99.90
11005;DHT22;5555;59.622;16.556;2022-12-13T01:51:51;-5.30;99.90
11005;DHT22;5555;59.622;16.556;2022-12-13T01:54:23;-5.30;99.90
11005;DHT22;5555;59.622;16.556;2022-12-13T01:56:54;-5.40;99.90
11005;DHT22;5555;59.622;16.556;2022-12-13T01:59:21;-5.40;99.90
11005;DHT22;5555;59.622;16.556;2022-12-13T02:01:48;-5.40;99.90
11005;DHT22;5555;59.622;16.556;2022-12-13T02:04:24;-5.40;99.90
11005;DHT22;5555;59.622;16.556;2022-12-13T02:06:52;-5.40;99.90
11005;DHT22;5555;59.622;16.556;2022-12-13T02:09:21;-5.50;99.90
11005;DHT22;5555;59.622;16.556;2022-12-13T02:11:47;-5.50;99.90
11005;DHT22;5555;59.622;16.556;2022-12-13T02:14:13;-5.50;99.90
11005;DHT22;5555;59.622;16.556;2022-12-13T02:17:05;-5.50;99.90
11005;DHT22;5555;59.622;16.556;2022-12-13T02:22:39;-5.50;99.90
11005;DHT22;5555;59.622;16.556;2022-12-13T02:30:54;-5.50;99.90
11005;DHT22;5555;59.622;16.556;2022-12-13T02:36:28;-5.60;99.90
11005;DHT22;5555;59.622;16.556;2022-12-13T02:39:12;-5.60;99.90
11005;DHT22;5555;59.622;16.556;2022-12-13T02:44:19;-5.70;99.90
11005;DHT22;5555;59.622;16.556;2022-12-13T02:47:14;-5.70;99.90
11005;DHT22;5555;59.622;16.556;2022-12-13T02:49:45;-5.80;99.90
11005;DHT22;5555;59.622;16.556;2022-12-13T02:52:12;-5.80;99.90
11005;DHT22;5555;59.622;16.556;2022-12-13T02:54:39;-5.80;99.90
11005;DHT22;5555;59.622;16.556;2022-12-13T02:59:55;-5.80;99.90
11005;DHT22;5555;59.622;16.556;2022-12-13T03:05:03;-5.90;99.90
11005;DHT22;5555;59.622;16.556;2022-12-13T03:08:10;-5.90;99.90
11005;DHT22;5555;59.622;16.556;2022-12-13T03:13:22;-6.00;99.90
11005;DHT22;5555;59.622;16.556;2022-12-13T03:16:23;-6.00;99.90
11005;DHT22;5555;59.622;16.556;2022-12-13T03:18:51;-6.10;99.90
11005;DHT22;5555;59.622;16.556;2022-12-13T03:21:17;-6.10;99.90
11005;DHT22;5555;59.622;16.556;2022-12-13T03:23:44;-6.20;99.90
11005;DHT22;5555;59.622;16.556;2022-12-13T03:26:13;-6.20;99.90
11005;DHT22;5555;59.622;16.556;2022-12-13T03:28:40;-6.30;99.90
11005;DHT22;5555;59.622;16.556;2022-12-13T03:31:06;-6.30;99.90
11005;DHT22;5555;59.622;16.556;2022-12-13T03:33:32;-6.40;99.90
11005;DHT22;5555;59.622;16.556;2022-12-13T03:35:59;-6.40;99.90
11005;DHT22;5555;59.622;16.556;2022-12-13T03:38:26;-6.40;99.90
11005;DHT22;5555;59.622;16.556;2022-12-13T03:41:05;-6.40;99.90
11005;DHT22;5555;59.622;16.556;2022-12-13T03:43:32;-6.50;99.90
11005;DHT22;5555;59.622;16.556;2022-12-13T03:45:57;-6.50;99.90
11005;DHT22;5555;59.622;16.556;2022-12-13T03:48:23;-6.50;99.90
11005;DHT22;5555;59.622;16.556;2022-12-13T03:50:50;-6.50;99.90
11005;DHT22;5555;59.622;16.556;2022-12-13T03:53:16;-6.60;99.90
11005;DHT22;5555;59.622;16.556;2022-12-13T03:55:41;-6.60;99.90
11005;DHT22;5555;59.622;16.556;2022-12-13T03:58:07;-6.60;99.90
11005;DHT22;5555;59.622;16.556;2022-12-13T04:00:33;-6.60;99.90
11005;DHT22;5555;59.622;16.556;2022-12-13T04:02:58;-6.70;99.90
11005;DHT22;5555;59.622;16.556;2022-12-13T04:05:24;-6.70;99.90
11005;DHT22;5555;59.622;16.556;2022-12-13T04:07:49;-6.70;99.90
11005;DHT22;5555;59.622;16.556;2022-12-13T04:10:15;-6.70;99.90
11005;DHT22;5555;59.622;16.556;2022-12-13T04:12:41;-6.70;99.90
11005;DHT22;5555;59.622;16.556;2022-12-13T04:15:25;-6.80;99.90
11005;DHT22;5555;59.622;16.556;2022-12-13T04:17:50;-6.80;99.90
11005;DHT22;5555;59.622;16.556;2022-12-13T04:20:16;-6.80;99.90
11005;DHT22;5555;59.622;16.556;2022-12-13T04:22:42;-6.80;99.90
11005;DHT22;5555;59.622;16.556;2022-12-13T04:25:07;-6.80;99.90
11005;DHT22;5555;59.622;16.556;2022-12-13T04:27:33;-6.80;99.90
11005;DHT22;5555;59.622;16.556;2022-12-13T04:29:59;-6.80;99.90
11005;DHT22;5555;59.622;16.556;2022-12-13T04:32:24;-6.80;99.90
11005;DHT22;5555;59.622;16.556;2022-12-13T04:34:50;-6.90;99.90
11005;DHT22;5555;59.622;16.556;2022-12-13T04:37:15;-6.90;99.90
11005;DHT22;5555;59.622;16.556;2022-12-13T04:39:41;-6.90;99.90
11005;DHT22;5555;59.622;16.556;2022-12-13T04:42:07;-6.80;99.90
11005;DHT22;5555;59.622;16.556;2022-12-13T04:44:33;-6.90;99.90
11005;DHT22;5555;59.622;16.556;2022-12-13T04:46:59;-6.90;99.90
11005;DHT22;5555;59.622;16.556;2022-12-13T04:49:27;-6.90;99.90
11005;DHT22;5555;59.622;16.556;2022-12-13T04:51:53;-6.90;99.90
11005;DHT22;5555;59.622;16.556;2022-12-13T04:54:19;-6.80;99.90
11005;DHT22;5555;59.622;16.556;2022-12-13T04:56:44;-6.90;99.90
11005;DHT22;5555;59.622;16.556;2022-12-13T04:59:10;-6.90;99.90
11005;DHT22;5555;59.622;16.556;2022-12-13T05:01:35;-6.90;99.90
11005;DHT22;5555;59.622;16.556;2022-12-13T05:04:02;-6.90;99.90
11005;DHT22;5555;59.622;16.556;2022-12-13T05:06:28;-6.90;99.90
11005;DHT22;5555;59.622;16.556;2022-12-13T05:08:54;-7.00;99.90
11005;DHT22;5555;59.622;16.556;2022-12-13T05:11:20;-7.00;99.90
11005;DHT22;5555;59.622;16.556;2022-12-13T05:13:46;-7.00;99.90
11005;DHT22;5555;59.622;16.556;2022-12-13T05:16:11;-7.00;99.90
11005;DHT22;5555;59.622;16.556;2022-12-13T05:18:38;-7.00;99.90
11005;DHT22;5555;59.622;16.556;2022-12-13T05:21:05;-7.00;99.90
11005;DHT22;5555;59.622;16.556;2022-12-13T05:23:31;-7.10;99.90
11005;DHT22;5555;59.622;16.556;2022-12-13T05:25:57;-7.10;99.90
11005;DHT22;5555;59.622;16.556;2022-12-13T05:28:24;-7.10;99.90
11005;DHT22;5555;59.622;16.556;2022-12-13T05:30:53;-7.10;99.90
11005;DHT22;5555;59.622;16.556;2022-12-13T05:33:18;-7.10;99.90
11005;DHT22;5555;59.622;16.556;2022-12-13T05:35:45;-7.20;99.90
11005;DHT22;5555;59.622;16.556;2022-12-13T05:38:10;-7.20;99.90
11005;DHT22;5555;59.622;16.556;2022-12-13T05:40:36;-7.20;99.90
11005;DHT22;5555;59.622;16.556;2022-12-13T05:43:02;-7.20;99.90
11005;DHT22;5555;59.622;16.556;2022-12-13T05:45:29;-7.20;99.90
11005;DHT22;5555;59.622;16.556;2022-12-13T05:47:55;-7.30;99.90
11005;DHT22;5555;59.622;16.556;2022-12-13T05:50:20;-7.30;99.90
11005;DHT22;5555;59.622;16.556;2022-12-13T05:52:46;-7.30;99.90
11005;DHT22;5555;59.622;16.556;2022-12-13T05:55:12;-7.30;99.90
11005;DHT22;5555;59.622;16.556;2022-12-13T05:57:38;-7.30;99.90
11005;DHT22;5555;59.622;16.556;2022-12-13T06:00:05;-7.30;99.90
11005;DHT22;5555;59.622;16.556;2022-12-13T06:02:39;-7.30;99.90
11005;DHT22;5555;59.622;16.556;2022-12-13T06:05:05;-7.30;99.90
11005;DHT22;5555;59.622;16.556;2022-12-13T06:07:31;-7.30;99.90
11005;DHT22;5555;59.622;16.556;2022-12-13T06:09:57;-7.30;99.90
11005;DHT22;5555;59.622;16.556;2022-12-13T06:12:23;-7.30;99.90
11005;DHT22;5555;59.622;16.556;2022-12-13T06:14:49;-7.30;99.90
11005;DHT22;5555;59.622;16.556;2022-12-13T06:17:14;-7.40;99.90
11005;DHT22;5555;59.622;16.556;2022-12-13T06:19:40;-7.40;99.90
11005;DHT22;5555;59.622;16.556;2022-12-13T06:22:06;-7.40;99.90
11005;DHT22;5555;59.622;16.556;2022-12-13T06:24:31;-7.40;99.90
11005;DHT22;5555;59.622;16.556;2022-12-13T06:26:57;-7.40;99.90
11005;DHT22;5555;59.622;16.556;2022-12-13T06:29:24;-7.50;99.90
11005;DHT22;5555;59.622;16.556;2022-12-13T06:31:58;-7.50;99.90
11005;DHT22;5555;59.622;16.556;2022-12-13T06:34:25;-7.50;99.90
11005;DHT22;5555;59.622;16.556;2022-12-13T06:36:50;-7.50;99.90
11005;DHT22;5555;59.622;16.556;2022-12-13T06:39:16;-7.60;99.90
11005;DHT22;5555;59.622;16.556;2022-12-13T06:41:42;-7.60;99.90
11005;DHT22;5555;59.622;16.556;2022-12-13T06:44:08;-7.60;99.90
11005;DHT22;5555;59.622;16.556;2022-12-13T06:46:34;-7.60;99.90
11005;DHT22;5555;59.622;16.556;2022-12-13T06:49:00;-7.60;99.90
11005;DHT22;5555;59.622;16.556;2022-12-13T06:51:26;-7.60;99.90
11005;DHT22;5555;59.622;16.556;2022-12-13T06:53:52;-7.60;99.90
11005;DHT22;5555;59.622;16.556;2022-12-13T06:56:18;-7.60;99.90
11005;DHT22;5555;59.622;16.556;2022-12-13T06:58:44;-7.70;99.90
11005;DHT22;5555;59.622;16.556;2022-12-13T07:01:15;-7.70;99.90
11005;DHT22;5555;59.622;16.556;2022-12-13T07:03:42;-7.70;99.90
11005;DHT22;5555;59.622;16.556;2022-12-13T07:06:13;-7.70;99.90
11005;DHT22;5555;59.622;16.556;2022-12-13T07:08:40;-7.70;99.90
11005;DHT22;5555;59.622;16.556;2022-12-13T07:11:06;-7.70;99.90
11005;DHT22;5555;59.622;16.556;2022-12-13T07:13:32;-7.70;99.90
11005;DHT22;5555;59.622;16.556;2022-12-13T07:15:58;-7.70;99.90
11005;DHT22;5555;59.622;16.556;2022-12-13T07:18:24;-7.70;99.90
11005;DHT22;5555;59.622;16.556;2022-12-13T07:20:50;-7.80;99.90
11005;DHT22;5555;59.622;16.556;2022-12-13T07:23:15;-7.80;99.90
11005;DHT22;5555;59.622;16.556;2022-12-13T07:25:41;-7.80;99.90
11005;DHT22;5555;59.622;16.556;2022-12-13T07:28:08;-7.80;99.90
11005;DHT22;5555;59.622;16.556;2022-12-13T07:30:38;-7.80;99.90
11005;DHT22;5555;59.622;16.556;2022-12-13T07:33:04;-7.80;99.90
11005;DHT22;5555;59.622;16.556;2022-12-13T07:35:31;-7.90;99.90
11005;DHT22;5555;59.622;16.556;2022-12-13T07:37:57;-7.90;99.90
11005;DHT22;5555;59.622;16.556;2022-12-13T07:40:24;-7.90;99.90
11005;DHT22;5555;59.622;16.556;2022-12-13T07:42:50;-7.90;99.90
11005;DHT22;5555;59.622;16.556;2022-12-13T07:45:16;-7.90;99.90
11005;DHT22;5555;59.622;16.556;2022-12-13T07:47:42;-7.90;99.90
11005;DHT22;5555;59.622;16.556;2022-12-13T07:50:08;-7.90;99.90
11005;DHT22;5555;59.622;16.556;2022-12-13T07:52:33;-7.90;99.90
11005;DHT22;5555;59.622;16.556;2022-12-13T07:54:59;-7.90;99.90
11005;DHT22;5555;59.622;16.556;2022-12-13T07:57:25;-7.90;99.90
11005;DHT22;5555;59.622;16.556;2022-12-13T07:59:51;-7.90;99.90
11005;DHT22;5555;59.622;16.556;2022-12-13T08:02:16;-7.90;99.90
11005;DHT22;5555;59.622;16.556;2022-12-13T08:04:42;-7.90;99.90
11005;DHT22;5555;59.622;16.556;2022-12-13T08:07:08;-7.90;99.90
11005;DHT22;5555;59.622;16.556;2022-12-13T08:09:35;-7.90;99.90
11005;DHT22;5555;59.622;16.556;2022-12-13T08:12:00;-7.90;99.90
11005;DHT22;5555;59.622;16.556;2022-12-13T08:14:26;-7.80;99.90
11005;DHT22;5555;59.622;16.556;2022-12-13T08:16:52;-7.90;99.90
11005;DHT22;5555;59.622;16.556;2022-12-13T08:19:17;-7.80;99.90
11005;DHT22;5555;59.622;16.556;2022-12-13T08:21:43;-7.80;99.90
11005;DHT22;5555;59.622;16.556;2022-12-13T08:24:09;-7.80;99.90
11005;DHT22;5555;59.622;16.556;2022-12-13T08:26:35;-7.80;99.90
11005;DHT22;5555;59.622;16.556;2022-12-13T08:29:01;-7.80;99.90
11005;DHT22;5555;59.622;16.556;2022-12-13T08:31:26;-7.80;99.90
11005;DHT22;5555;59.622;16.556;2022-12-13T08:33:53;-7.80;99.90
11005;DHT22;5555;59.622;16.556;2022-12-13T08:36:19;-7.70;99.90
11005;DHT22;5555;59.622;16.556;2022-12-13T08:38:53;-7.80;99.90
11005;DHT22;5555;59.622;16.556;2022-12-13T08:41:19;-7.80;99.90
11005;DHT22;5555;59.622;16.556;2022-12-13T08:43:45;-7.80;99.90
11005;DHT22;5555;59.622;16.556;2022-12-13T08:46:11;-7.80;99.90
11005;DHT22;5555;59.622;16.556;2022-12-13T08:48:36;-7.80;99.90
11005;DHT22;5555;59.622;16.556;2022-12-13T08:51:07;-7.70;99.90
11005;DHT22;5555;59.622;16.556;2022-12-13T08:53:34;-7.70;99.90
11005;DHT22;5555;59.622;16.556;2022-12-13T08:56:04;-7.70;99.90
11005;DHT22;5555;59.622;16.556;2022-12-13T08:58:30;-7.70;99.90
11005;DHT22;5555;59.622;16.556;2022-12-13T09:00:56;-7.70;99.90
11005;DHT22;5555;59.622;16.556;2022-12-13T09:03:22;-7.70;99.90
11005;DHT22;5555;59.622;16.556;2022-12-13T09:05:48;-7.70;99.90
11005;DHT22;5555;59.622;16.556;2022-12-13T09:08:14;-7.70;99.90
11005;DHT22;5555;59.622;16.556;2022-12-13T09:10:40;-7.70;99.90
11005;DHT22;5555;59.622;16.556;2022-12-13T09:13:06;-7.70;99.90
11005;DHT22;5555;59.622;16.556;2022-12-13T09:15:32;-7.70;99.90
11005;DHT22;5555;59.622;16.556;2022-12-13T09:17:57;-7.70;99.90
11005;DHT22;5555;59.622;16.556;2022-12-13T09:20:23;-7.70;99.90
11005;DHT22;5555;59.622;16.556;2022-12-13T09:22:49;-7.60;99.90
11005;DHT22;5555;59.622;16.556;2022-12-13T09:25:15;-7.50;99.90
11005;DHT22;5555;59.622;16.556;2022-12-13T09:27:41;-7.50;99.90
11005;DHT22;5555;59.622;16.556;2022-12-13T09:30:08;-7.50;99.90
11005;DHT22;5555;59.622;16.556;2022-12-13T09:32:37;-7.50;99.90
11005;DHT22;5555;59.622;16.556;2022-12-13T09:35:04;-7.50;99.90
11005;DHT22;5555;59.622;16.556;2022-12-13T09:37:30;-7.50;99.90
11005;DHT22;5555;59.622;16.556;2022-12-13T09:39:56;-7.60;99.90
11005;DHT22;5555;59.622;16.556;2022-12-13T09:42:24;-7.60;99.90
11005;DHT22;5555;59.622;16.556;2022-12-13T09:44:53;-7.50;99.90
11005;DHT22;5555;59.622;16.556;2022-12-13T09:47:33;-7.50;99.90
11005;DHT22;5555;59.622;16.556;2022-12-13T09:50:01;-7.50;99.90
11005;DHT22;5555;59.622;16.556;2022-12-13T09:52:36;-7.50;99.90
11005;DHT22;5555;59.622;16.556;2022-12-13T09:55:20;-7.50;99.90
11005;DHT22;5555;59.622;16.556;2022-12-13T09:57:46;-7.50;99.90
11005;DHT22;5555;59.622;16.556;2022-12-13T10:00:18;-7.50;99.90
11005;DHT22;5555;59.622;16.556;2022-12-13T10:02:46;-7.50;99.90
11005;DHT22;5555;59.622;16.556;2022-12-13T10:07:47;-7.50;99.90
11005;DHT22;5555;59.622;16.556;2022-12-13T10:10:14;-7.60;99.90
11005;DHT22;5555;59.622;16.556;2022-12-13T10:12:42;-7.60;99.90
11005;DHT22;5555;59.622;16.556;2022-12-13T10:15:11;-7.60;99.90
11005;DHT22;5555;59.622;16.556;2022-12-13T10:17:39;-7.50;99.90
11005;DHT22;5555;59.622;16.556;2022-12-13T10:20:07;-7.60;99.90
11005;DHT22;5555;59.622;16.556;2022-12-13T10:22:37;-7.60;99.90
11005;DHT22;5555;59.622;16.556;2022-12-13T10:25:04;-7.60;99.90
11005;DHT22;5555;59.622;16.556;2022-12-13T10:27:42;-7.60;99.90
11005;DHT22;5555;59.622;16.556;2022-12-13T10:35:37;-7.70;99.90
11005;DHT22;5555;59.622;16.556;2022-12-13T10:40:37;-7.80;99.90
11005;DHT22;5555;59.622;16.556;2022-12-13T10:43:20;-7.80;99.90
11005;DHT22;5555;59.622;16.556;2022-12-13T10:53:30;-7.70;99.90
11005;DHT22;5555;59.622;16.556;2022-12-13T10:55:57;-7.80;99.90
11005;DHT22;5555;59.622;16.556;2022-12-13T10:58:37;-7.70;99.90
11005;DHT22;5555;59.622;16.556;2022-12-13T11:01:23;-7.70;99.90
11005;DHT22;5555;59.622;16.556;2022-12-13T11:06:47;-7.70;99.90
11005;DHT22;5555;59.622;16.556;2022-12-13T11:09:15;-7.60;99.90
11005;DHT22;5555;59.622;16.556;2022-12-13T11:11:50;-7.70;99.90
11005;DHT22;5555;59.622;16.556;2022-12-13T11:14:18;-7.70;99.90
11005;DHT22;5555;59.622;16.556;2022-12-13T11:16:50;-7.70;99.90
11005;DHT22;5555;59.622;16.556;2022-12-13T11:19:19;-7.70;99.90
11005;DHT22;5555;59.622;16.556;2022-12-13T11:21:48;-7.70;99.90
11005;DHT22;5555;59.622;16.556;2022-12-13T11:24:20;-7.70;99.90
11005;DHT22;5555;59.622;16.556;2022-12-13T11:26:51;-7.70;99.90
11005;DHT22;5555;59.622;16.556;2022-12-13T11:32:13;-7.70;99.90
11005;DHT22;5555;59.622;16.556;2022-12-13T11:37:46;-7.70;99.90
11005;DHT22;5555;59.622;16.556;2022-12-13T11:40:28;-7.80;99.90
11005;DHT22;5555;59.622;16.556;2022-12-13T11:43:03;-7.70;99.90
11005;DHT22;5555;59.622;16.556;2022-12-13T11:45:36;-7.70;99.90
11005;DHT22;5555;59.622;16.556;2022-12-13T11:50:40;-7.80;99.90
11005;DHT22;5555;59.622;16.556;2022-12-13T11:53:18;-7.80;99.90
11005;DHT22;5555;59.622;16.556;2022-12-13T11:56:12;-7.80;99.90
11005;DHT22;5555;59.622;16.556;2022-12-13T11:59:08;-7.80;99.90
11005;DHT22;5555;59.622;16.556;2022-12-13T12:01:39;-7.80;99.90
11005;DHT22;5555;59.622;16.556;2022-12-13T12:04:38;-7.80;99.90
11005;DHT22;5555;59.622;16.556;2022-12-13T12:07:13;-7.80;99.90
11005;DHT22;5555;59.622;16.556;2022-12-13T12:09:43;-7.90;99.90
11005;DHT22;5555;59.622;16.556;2022-12-13T12:12:38;-7.90;99.90
11005;DHT22;5555;59.622;16.556;2022-12-13T12:15:14;-7.90;99.90
11005;DHT22;5555;59.622;16.556;2022-12-13T12:17:42;-8.00;99.90
11005;DHT22;5555;59.622;16.556;2022-12-13T12:20:18;-8.00;99.90
11005;DHT22;5555;59.622;16.556;2022-12-13T12:30:57;-7.80;99.90
11005;DHT22;5555;59.622;16.556;2022-12-13T12:34:08;-7.80;99.90
11005;DHT22;5555;59.622;16.556;2022-12-13T12:39:14;-7.70;99.90
11005;DHT22;5555;59.622;16.556;2022-12-13T12:50:02;-8.00;99.90
11005;DHT22;5555;59.622;16.556;2022-12-13T12:55:27;-8.10;99.90
11005;DHT22;5555;59.622;16.556;2022-12-13T12:58:03;-8.20;99.90
11005;DHT22;5555;59.622;16.556;2022-12-13T13:03:17;-8.20;99.90
11005;DHT22;5555;59.622;16.556;2022-12-13T13:08:19;-8.20;99.90
11005;DHT22;5555;59.622;16.556;2022-12-13T13:10:47;-7.80;99.90
11005;DHT22;5555;59.622;16.556;2022-12-13T13:18:52;-8.10;99.90
11005;DHT22;5555;59.622;16.556;2022-12-13T13:21:30;-8.30;99.90
11005;DHT22;5555;59.622;16.556;2022-12-13T13:26:29;-8.40;99.90
11005;DHT22;5555;59.622;16.556;2022-12-13T13:31:54;-8.50;99.90
11005;DHT22;5555;59.622;16.556;2022-12-13T13:34:22;-8.60;99.90
11005;DHT22;5555;59.622;16.556;2022-12-13T13:36:48;-8.60;99.90
11005;DHT22;5555;59.622;16.556;2022-12-13T13:39:18;-8.70;99.90
11005;DHT22;5555;59.622;16.556;2022-12-13T13:52:22;-8.90;99.90
11005;DHT22;5555;59.622;16.556;2022-12-13T13:55:32;-8.90;99.90
11005;DHT22;5555;59.622;16.556;2022-12-13T14:01:04;-9.00;99.90
11005;DHT22;5555;59.622;16.556;2022-12-13T14:06:59;-9.00;99.90
11005;DHT22;5555;59.622;16.556;2022-12-13T14:24:03;-9.20;99.90
11005;DHT22;5555;59.622;16.556;2022-12-13T14:29:40;-9.30;99.90
11005;DHT22;5555;59.622;16.556;2022-12-13T14:32:09;-9.40;99.90
11005;DHT22;5555;59.622;16.556;2022-12-13T14:34:36;-9.40;99.90
11005;DHT22;5555;59.622;16.556;2022-12-13T14:37:05;-9.40;99.90
11005;DHT22;5555;59.622;16.556;2022-12-13T14:39:31;-9.40;99.90
11005;DHT22;5555;59.622;16.556;2022-12-13T14:42:01;-9.40;99.90
11005;DHT22;5555;59.622;16.556;2022-12-13T14:44:39;-9.50;99.90
11005;DHT22;5555;59.622;16.556;2022-12-13T14:47:06;-9.50;99.90
11005;DHT22;5555;59.622;16.556;2022-12-13T14:49:35;-9.50;99.90
11005;DHT22;5555;59.622;16.556;2022-12-13T14:52:13;-9.50;99.90
11005;DHT22;5555;59.622;16.556;2022-12-13T14:57:16;-9.50;99.90
11005;DHT22;5555;59.622;16.556;2022-12-13T14:59:47;-9.60;99.90
11005;DHT22;5555;59.622;16.556;2022-12-13T15:02:16;-9.60;99.90
11005;DHT22;5555;59.622;16.556;2022-12-13T15:04:42;-9.60;99.90
11005;DHT22;5555;59.622;16.556;2022-12-13T15:07:35;-9.60;99.90
11005;DHT22;5555;59.622;16.556;2022-12-13T15:10:16;-9.60;99.90
11005;DHT22;5555;59.622;16.556;2022-12-13T15:12:43;-9.60;99.90
11005;DHT22;5555;59.622;16.556;2022-12-13T15:15:36;-9.60;99.90
11005;DHT22;5555;59.622;16.556;2022-12-13T15:18:19;-9.60;99.90
11005;DHT22;5555;59.622;16.556;2022-12-13T15:20:46;-9.70;99.90
11005;DHT22;5555;59.622;16.556;2022-12-13T15:23:35;-9.70;99.90
11005;DHT22;5555;59.622;16.556;2022-12-13T15:26:14;-9.70;99.90
11005;DHT22;5555;59.622;16.556;2022-12-13T15:28:43;-9.80;99.90
11005;DHT22;5555;59.622;16.556;2022-12-13T15:31:09;-9.70;99.90
11005;DHT22;5555;59.622;16.556;2022-12-13T15:33:35;-9.80;99.90
11005;DHT22;5555;59.622;16.556;2022-12-13T15:36:13;-9.80;99.90
11005;DHT22;5555;59.622;16.556;2022-12-13T15:41:18;-9.80;99.90
11005;DHT22;5555;59.622;16.556;2022-12-13T15:43:47;-9.80;99.90
11005;DHT22;5555;59.622;16.556;2022-12-13T15:46:14;-9.80;99.90
11005;DHT22;5555;59.622;16.556;2022-12-13T15:48:47;-9.90;99.90
11005;DHT22;5555;59.622;16.556;2022-12-13T15:51:15;-10.00;99.90
11005;DHT22;5555;59.622;16.556;2022-12-13T15:54:01;-10.00;99.90
11005;DHT22;5555;59.622;16.556;2022-12-13T15:56:30;-10.10;99.90
11005;DHT22;5555;59.622;16.556;2022-12-13T15:58:57;-10.10;99.90
11005;DHT22;5555;59.622;16.556;2022-12-13T16:01:27;-10.10;99.90
11005;DHT22;5555;59.622;16.556;2022-12-13T16:03:54;-10.10;99.90
11005;DHT22;5555;59.622;16.556;2022-12-13T16:06:22;-10.20;99.90
11005;DHT22;5555;59.622;16.556;2022-12-13T16:08:52;-10.20;99.90
11005;DHT22;5555;59.622;16.556;2022-12-13T16:11:33;-10.20;99.90
11005;DHT22;5555;59.622;16.556;2022-12-13T16:14:26;-10.20;99.90
11005;DHT22;5555;59.622;16.556;2022-12-13T16:17:24;-10.20;99.90
11005;DHT22;5555;59.622;16.556;2022-12-13T16:19:54;-10.30;99.90
11005;DHT22;5555;59.622;16.556;2022-12-13T16:22:21;-10.30;99.90
11005;DHT22;5555;59.622;16.556;2022-12-13T16:24:48;-10.30;99.90
11005;DHT22;5555;59.622;16.556;2022-12-13T16:27:15;-10.40;99.90
11005;DHT22;5555;59.622;16.556;2022-12-13T16:29:42;-10.40;99.90
11005;DHT22;5555;59.622;16.556;2022-12-13T16:32:07;-10.50;99.90
11005;DHT22;5555;59.622;16.556;2022-12-13T16:34:35;-10.50;99.90
11005;DHT22;5555;59.622;16.556;2022-12-13T16:37:01;-10.60;99.90
11005;DHT22;5555;59.622;16.556;2022-12-13T16:39:27;-10.70;99.90
11005;DHT22;5555;59.622;16.556;2022-12-13T16:41:53;-10.70;99.90
11005;DHT22;5555;59.622;16.556;2022-12-13T16:44:38;-10.80;99.90
11005;DHT22;5555;59.622;16.556;2022-12-13T16:47:09;-10.90;99.90
11005;DHT22;5555;59.622;16.556;2022-12-13T16:49:36;-10.90;99.90
11005;DHT22;5555;59.622;16.556;2022-12-13T16:52:03;-10.90;99.90
11005;DHT22;5555;59.622;16.556;2022-12-13T16:54:30;-10.90;99.90
11005;DHT22;5555;59.622;16.556;2022-12-13T16:56:55;-10.90;99.90
11005;DHT22;5555;59.622;16.556;2022-12-13T16:59:24;-10.90;99.90
11005;DHT22;5555;59.622;16.556;2022-12-13T17:01:50;-10.90;99.90
11005;DHT22;5555;59.622;16.556;2022-12-13T17:04:21;-11.00;99.90
11005;DHT22;5555;59.622;16.556;2022-12-13T17:06:50;-11.00;99.90
11005;DHT22;5555;59.622;16.556;2022-12-13T17:09:17;-11.00;99.90
11005;DHT22;5555;59.622;16.556;2022-12-13T17:11:43;-11.10;99.90
11005;DHT22;5555;59.622;16.556;2022-12-13T17:14:09;-11.10;99.90
11005;DHT22;5555;59.622;16.556;2022-12-13T17:16:35;-11.10;99.90
11005;DHT22;5555;59.622;16.556;2022-12-13T17:19:00;-11.10;99.90
11005;DHT22;5555;59.622;16.556;2022-12-13T17:21:26;-11.10;99.90
11005;DHT22;5555;59.622;16.556;2022-12-13T17:23:58;-11.10;99.90
11005;DHT22;5555;59.622;16.556;2022-12-13T17:26:24;-11.10;99.90
11005;DHT22;5555;59.622;16.556;2022-12-13T17:28:51;-11.20;99.90
11005;DHT22;5555;59.622;16.556;2022-12-13T17:31:17;-11.10;99.90
11005;DHT22;5555;59.622;16.556;2022-12-13T17:33:43;-11.20;99.90
11005;DHT22;5555;59.622;16.556;2022-12-13T17:36:10;-11.20;99.90
11005;DHT22;5555;59.622;16.556;2022-12-13T17:38:41;-11.10;99.90
11005;DHT22;5555;59.622;16.556;2022-12-13T17:41:08;-11.20;99.90
11005;DHT22;5555;59.622;16.556;2022-12-13T17:43:33;-11.20;99.90
11005;DHT22;5555;59.622;16.556;2022-12-13T17:46:09;-11.20;99.90
11005;DHT22;5555;59.622;16.556;2022-12-13T17:48:35;-11.20;99.90
11005;DHT22;5555;59.622;16.556;2022-12-13T17:51:01;-11.20;99.90
11005;DHT22;5555;59.622;16.556;2022-12-13T17:53:27;-11.20;99.90
11005;DHT22;5555;59.622;16.556;2022-12-13T17:56:00;-11.20;99.90